AerodromSadržaj METAR izveštaja
LYBEMETAR LYBE 282300Z 27009KT CAVOK 14/13 Q1013 NOSIG=
LYBTMETAR LYBT 282300Z 22004KT CAVOK 13/12 Q1012 NOSIG=
LYKVMETAR LYKV 282300Z 32002KT CAVOK 13/13 Q1012 NOSIG=
LYNIMETAR LYNI 282300Z 10003KT 070V200 9999 -RA SCT037 15/14 Q1013 NOSIG=
LYVRMETAR LYVR 282300Z AUTO 21005KT CAVOK 14/12 Q1012=
LYUZMETAR LYUZ 282300Z AUTO 29004KT 9999 -RA FEW038/// SCT043/// OVC069/// 09/09 Q1014 RERA=
LYPGMETAR LYPG 282300Z 31003KT 280V010 9999 -RA VCTS FEW030CB SCT040 BKN080 15/14 Q1014 TEMPO VRB15G25KT 4000 TSRA SCT030CB SCT040=
LYTVMETAR LYTV 282300Z VRB06KT 9999 FEW033 SCT060 16/13 Q1012=

Podaci učitani u: 2020-09-28 23:22:06 UTC

METAR, TAF, AIRMET, GAMET, SIGMET

Važna napomena: MET infоrmаciје nа оvim web strаnicаmа imајu infоrmаtivni kаrаktеr, nаmenjene su isključivo vаzduhоplоvnim kоrisnicima, nе smејu sе kоristiti zа bilо kоје kоmеrciјаlnе svrhе, i nе zаmеnjuјu dоkumеntаciјu zа lеt.